createdAt,value
2023-04-03T00:00:43.752Z,11.60
2023-04-03T00:03:22.526Z,25.10
2023-04-03T00:05:54.850Z,18.70
2023-04-03T00:08:27.277Z,16.80
2023-04-03T00:10:59.493Z,12.00
2023-04-03T00:13:31.889Z,21.90
2023-04-03T00:16:04.806Z,7.90
2023-04-03T00:18:37.365Z,31.10
2023-04-03T00:21:11.898Z,10.40
2023-04-03T00:23:44.213Z,9.10
2023-04-03T00:26:16.395Z,9.10
2023-04-03T00:28:48.672Z,11.30
2023-04-03T00:31:20.997Z,6.90
2023-04-03T00:33:53.220Z,12.50
2023-04-03T00:36:25.676Z,7.00
2023-04-03T00:38:57.953Z,8.10
2023-04-03T00:41:30.173Z,14.60
2023-04-03T00:44:02.452Z,6.80
2023-04-03T00:46:34.807Z,3.90
2023-04-03T00:49:07.074Z,4.80
2023-04-03T00:51:39.376Z,7.70
2023-04-03T00:54:11.990Z,7.90
2023-04-03T00:56:45.353Z,7.30
2023-04-03T00:59:24.187Z,7.40
2023-04-03T01:01:58.120Z,5.90
2023-04-03T01:04:35.920Z,10.00
2023-04-03T01:07:12.586Z,6.40
2023-04-03T01:09:46.793Z,7.80
2023-04-03T01:12:21.646Z,7.30
2023-04-03T01:14:55.745Z,4.80
2023-04-03T01:17:36.532Z,6.60
2023-04-03T01:20:47.329Z,5.40
2023-04-03T01:23:36.403Z,5.10
2023-04-03T01:26:10.114Z,11.50
2023-04-03T01:28:42.609Z,5.60
2023-04-03T01:31:22.419Z,7.60
2023-04-03T01:33:55.486Z,9.80
2023-04-03T01:36:31.122Z,11.10
2023-04-03T01:39:03.610Z,6.80
2023-04-03T01:41:35.913Z,13.50
2023-04-03T01:44:15.822Z,5.70
2023-04-03T01:46:48.611Z,12.60
2023-04-03T01:49:20.958Z,6.10
2023-04-03T01:51:53.292Z,7.50
2023-04-03T01:54:25.564Z,10.30
2023-04-03T01:56:57.904Z,30.90
2023-04-03T01:59:30.442Z,13.70
2023-04-03T02:02:02.761Z,6.20
2023-04-03T02:04:35.090Z,4.60
2023-04-03T02:07:07.362Z,3.70
2023-04-03T02:09:39.559Z,3.80
2023-04-03T02:12:12.012Z,5.50
2023-04-03T02:14:44.396Z,5.70
2023-04-03T02:17:17.619Z,3.20
2023-04-03T02:19:49.931Z,6.60
2023-04-03T02:22:22.407Z,10.70
2023-04-03T02:24:54.602Z,8.10
2023-04-03T02:27:26.971Z,4.30
2023-04-03T02:29:59.359Z,18.90
2023-04-03T02:32:31.849Z,6.10
2023-04-03T02:35:04.329Z,7.00
2023-04-03T02:37:37.889Z,4.90
2023-04-03T02:40:13.043Z,6.80
2023-04-03T02:42:45.286Z,5.70
2023-04-03T02:45:18.011Z,17.70
2023-04-03T02:47:50.347Z,7.90
2023-04-03T02:50:22.652Z,4.60
2023-04-03T02:52:54.879Z,5.70
2023-04-03T02:55:27.454Z,6.30
2023-04-03T02:58:00.553Z,4.90
2023-04-03T03:00:33.218Z,5.40
2023-04-03T03:03:05.994Z,3.50
2023-04-03T03:05:38.551Z,3.70
2023-04-03T03:08:11.833Z,3.90
2023-04-03T03:10:44.099Z,6.80
2023-04-03T03:13:16.633Z,7.70
2023-04-03T03:15:48.985Z,8.20
2023-04-03T03:18:21.394Z,5.10
2023-04-03T03:20:57.007Z,5.10
2023-04-03T03:23:31.685Z,5.60
2023-04-03T03:26:06.370Z,5.90
2023-04-03T03:28:41.512Z,3.70
2023-04-03T03:31:14.606Z,5.00
2023-04-03T03:33:46.966Z,5.70
2023-04-03T03:36:19.203Z,6.90
2023-04-03T03:38:51.438Z,5.50
2023-04-03T03:41:23.948Z,3.50
2023-04-03T03:43:56.419Z,5.80
2023-04-03T03:46:29.406Z,5.70
2023-04-03T03:49:01.770Z,5.00
2023-04-03T03:51:34.008Z,5.20
2023-04-03T03:54:06.432Z,3.60
2023-04-03T03:56:38.839Z,4.00
2023-04-03T03:59:13.348Z,11.60
2023-04-03T04:01:46.044Z,8.00
2023-04-03T04:04:18.464Z,10.20
2023-04-03T04:06:51.644Z,15.80
2023-04-03T04:09:24.320Z,13.40
2023-04-03T04:11:56.676Z,12.00
2023-04-03T04:14:28.904Z,10.00
2023-04-03T04:17:03.515Z,25.30
2023-04-03T04:19:36.322Z,15.70
2023-04-03T04:22:08.630Z,27.40
2023-04-03T04:24:41.380Z,21.90
2023-04-03T04:27:13.877Z,26.10
2023-04-03T04:29:46.218Z,23.90
2023-04-03T04:32:18.587Z,29.40
2023-04-03T04:34:51.209Z,26.30
2023-04-03T04:37:23.606Z,58.50
2023-04-03T04:39:56.038Z,187.40
2023-04-03T04:42:28.619Z,73.60
2023-04-03T04:45:00.873Z,30.70
2023-04-03T04:47:33.539Z,20.40
2023-04-03T04:50:06.621Z,17.30
2023-04-03T04:52:39.361Z,7.70
2023-04-03T04:55:12.324Z,7.10
2023-04-03T04:57:44.642Z,7.70
2023-04-03T05:00:19.884Z,14.30
2023-04-03T05:02:52.552Z,17.80
2023-04-03T05:05:25.185Z,13.50
2023-04-03T05:07:57.909Z,28.10
2023-04-03T05:10:30.859Z,42.80
2023-04-03T05:13:03.058Z,35.10
2023-04-03T05:15:35.559Z,34.40
2023-04-03T05:18:09.253Z,54.80
2023-04-03T05:20:41.786Z,35.00
2023-04-03T05:23:14.609Z,16.20
2023-04-03T05:25:48.092Z,33.10
2023-04-03T05:28:20.606Z,22.30
2023-04-03T05:30:57.897Z,15.40
2023-04-03T05:33:31.432Z,30.60
2023-04-03T05:36:08.526Z,21.30
2023-04-03T05:38:44.032Z,31.70
2023-04-03T05:41:16.911Z,18.00
2023-04-03T05:43:50.621Z,19.80
2023-04-03T05:46:23.427Z,16.70
2023-04-03T05:48:58.480Z,14.70
2023-04-03T05:51:36.545Z,13.80
2023-04-03T05:54:19.997Z,18.10
2023-04-03T05:56:53.277Z,6.90
2023-04-03T05:59:26.231Z,14.90
2023-04-03T06:01:59.144Z,8.90
2023-04-03T06:04:31.690Z,7.30
2023-04-03T06:07:04.663Z,6.60
2023-04-03T06:09:37.416Z,7.40
2023-04-03T06:12:10.879Z,14.10
2023-04-03T06:14:43.357Z,6.50
2023-04-03T06:17:16.415Z,8.20
2023-04-03T06:19:49.372Z,9.30
2023-04-03T06:22:22.368Z,38.30
2023-04-03T06:24:54.569Z,11.60
2023-04-03T06:27:26.800Z,10.80
2023-04-03T06:29:59.021Z,45.50
2023-04-03T06:32:31.356Z,10.00
2023-04-03T06:35:04.253Z,9.80
2023-04-03T06:37:36.584Z,23.90
2023-04-03T06:40:17.770Z,13.60
2023-04-03T06:42:50.350Z,12.30
2023-04-03T06:45:23.629Z,15.70
2023-04-03T06:47:56.725Z,14.70
2023-04-03T06:50:29.194Z,21.20
2023-04-03T06:53:02.053Z,12.70
2023-04-03T06:55:34.334Z,11.40
2023-04-03T06:58:06.665Z,7.90
2023-04-03T07:00:39.282Z,12.30
2023-04-03T07:03:11.775Z,21.10
2023-04-03T07:05:45.925Z,10.40
2023-04-03T07:08:18.176Z,11.00
2023-04-03T07:10:51.334Z,8.70
2023-04-03T07:13:23.568Z,5.80
2023-04-03T07:15:56.032Z,12.10
2023-04-03T07:18:28.567Z,7.30
2023-04-03T07:21:01.458Z,9.00
2023-04-03T07:23:33.898Z,5.60
2023-04-03T07:26:06.738Z,11.40
2023-04-03T07:28:41.269Z,6.60
2023-04-03T07:31:16.119Z,7.40
2023-04-03T07:36:23.220Z,8.80
2023-04-03T07:38:55.565Z,29.70
2023-04-03T07:41:27.926Z,7.10
2023-04-03T07:44:00.230Z,19.60
2023-04-03T07:46:32.574Z,22.70
2023-04-03T07:49:04.865Z,26.70
2023-04-03T07:51:37.011Z,24.50
2023-04-03T07:54:09.375Z,13.50
2023-04-03T07:56:41.763Z,31.80
2023-04-03T07:59:14.006Z,6.20
2023-04-03T08:01:46.258Z,18.20
2023-04-03T08:04:18.535Z,81.50
2023-04-03T08:06:50.804Z,24.80
2023-04-03T08:09:23.262Z,31.10
2023-04-03T08:11:55.501Z,33.80
2023-04-03T08:14:27.713Z,23.50
2023-04-03T08:17:00.076Z,11.10
2023-04-03T08:19:32.492Z,9.40
2023-04-03T08:22:06.114Z,10.00
2023-04-03T08:24:39.373Z,7.10
2023-04-03T08:27:15.511Z,7.60
2023-04-03T08:29:48.618Z,5.70
2023-04-03T08:32:21.183Z,5.30
2023-04-03T08:34:53.740Z,7.90
2023-04-03T08:37:26.557Z,12.20
2023-04-03T08:39:58.919Z,8.80
2023-04-03T08:42:44.162Z,5.60
2023-04-03T08:45:19.653Z,5.60
2023-04-03T08:47:58.570Z,6.00
2023-04-03T08:50:38.227Z,5.20
2023-04-03T08:53:16.893Z,9.10
2023-04-03T08:55:51.294Z,8.50
2023-04-03T08:58:25.453Z,7.80
2023-04-03T09:01:02.000Z,6.20
2023-04-03T09:03:36.526Z,7.30
2023-04-03T09:06:16.230Z,3.40
2023-04-03T09:08:57.807Z,3.80
2023-04-03T09:11:38.692Z,5.00
2023-04-03T09:14:23.688Z,3.90
2023-04-03T09:16:59.146Z,5.90
2023-04-03T09:19:44.140Z,8.70
2023-04-03T09:22:22.764Z,7.00
2023-04-03T09:25:01.126Z,9.00
2023-04-03T09:27:33.474Z,6.50
2023-04-03T09:30:08.112Z,5.20
2023-04-03T09:32:40.297Z,3.20
2023-04-03T09:35:27.379Z,5.50
2023-04-03T09:38:23.657Z,8.00
2023-04-03T09:41:08.835Z,3.90
2023-04-03T09:43:53.625Z,6.10
2023-04-03T09:46:35.079Z,5.60
2023-04-03T09:49:13.100Z,4.00
2023-04-03T09:51:46.362Z,3.60
2023-04-03T09:54:44.319Z,3.50
2023-04-03T09:57:17.426Z,4.80
2023-04-03T10:00:00.720Z,2.80
2023-04-03T10:02:38.270Z,5.60
2023-04-03T10:05:34.372Z,8.60
2023-04-03T10:08:24.627Z,8.70
2023-04-03T10:11:18.289Z,6.40
2023-04-03T10:14:00.648Z,4.60
2023-04-03T10:16:43.264Z,5.40
2023-04-03T10:19:32.250Z,3.90
2023-04-03T10:22:15.616Z,5.70
2023-04-03T10:24:55.928Z,3.40
2023-04-03T10:27:39.539Z,3.40
2023-04-03T10:30:30.994Z,6.40
2023-04-03T10:33:16.948Z,3.20
2023-04-03T10:36:02.406Z,3.00
2023-04-03T10:38:45.513Z,2.90
2023-04-03T10:41:26.288Z,4.50
2023-04-03T10:44:07.582Z,5.60
2023-04-03T10:46:44.382Z,2.20
2023-04-03T10:49:38.007Z,2.50
2023-04-03T10:52:19.289Z,4.70
2023-04-03T10:55:00.281Z,4.50
2023-04-03T10:57:33.051Z,3.70
2023-04-03T11:00:10.590Z,5.80
2023-04-03T11:02:50.626Z,2.90
2023-04-03T11:05:33.681Z,3.60
2023-04-03T11:08:13.686Z,4.30
2023-04-03T11:10:47.791Z,14.40
2023-04-03T11:13:24.436Z,21.00
2023-04-03T11:15:59.220Z,10.60
2023-04-03T11:18:39.945Z,15.70
2023-04-03T11:21:18.707Z,5.70
2023-04-03T11:23:52.365Z,6.50
2023-04-03T11:26:29.499Z,3.70
2023-04-03T11:29:08.185Z,7.50
2023-04-03T11:32:06.714Z,5.50
2023-04-03T11:34:42.817Z,6.60
2023-04-03T11:37:24.282Z,9.00
2023-04-03T11:40:01.781Z,8.20
2023-04-03T11:42:38.988Z,8.00
2023-04-03T11:45:28.895Z,5.60
2023-04-03T11:48:16.693Z,5.50
2023-04-03T11:50:55.631Z,5.70
2023-04-03T11:53:40.324Z,6.70
2023-04-03T11:56:33.960Z,5.70
2023-04-03T11:59:28.954Z,5.40
2023-04-03T12:02:01.654Z,15.90
2023-04-03T12:04:34.037Z,26.80
2023-04-03T12:07:28.741Z,17.10
2023-04-03T12:10:04.340Z,5.60
2023-04-03T12:12:42.674Z,6.10
2023-04-03T12:15:51.053Z,9.50
2023-04-03T12:18:59.699Z,8.10
2023-04-03T12:22:10.097Z,13.80
2023-04-03T12:24:43.974Z,9.40
2023-04-03T12:27:41.394Z,21.50
2023-04-03T12:30:27.578Z,18.00
2023-04-03T12:33:26.851Z,41.90
2023-04-03T12:36:10.500Z,27.10
2023-04-03T12:39:18.200Z,42.10
2023-04-03T12:42:00.660Z,16.90
2023-04-03T12:44:46.595Z,14.70
2023-04-03T12:47:34.230Z,22.10
2023-04-03T12:50:20.706Z,12.80
2023-04-03T12:52:57.210Z,44.00
2023-04-03T12:55:29.733Z,10.80
2023-04-03T12:58:18.180Z,6.40
2023-04-03T13:01:00.772Z,11.00
2023-04-03T13:03:33.867Z,6.60
2023-04-03T13:06:06.817Z,24.10
2023-04-03T13:08:39.227Z,24.00
2023-04-03T13:11:14.611Z,11.00
2023-04-03T13:13:58.380Z,20.10
2023-04-03T13:16:31.399Z,13.10
2023-04-03T13:19:03.641Z,12.90
2023-04-03T13:21:37.226Z,23.80
2023-04-03T13:24:15.198Z,38.00
2023-04-03T13:26:48.087Z,15.20
2023-04-03T13:29:30.941Z,22.50
2023-04-03T13:32:07.284Z,14.40
2023-04-03T13:34:45.857Z,17.00
2023-04-03T13:37:29.682Z,7.60
2023-04-03T13:40:06.633Z,17.20
2023-04-03T13:42:42.352Z,12.00
2023-04-03T13:45:22.012Z,17.30
2023-04-03T13:47:56.984Z,15.50
2023-04-03T13:50:30.181Z,10.20
2023-04-03T13:53:13.433Z,6.70
2023-04-03T13:56:00.239Z,8.00
2023-04-03T13:58:35.561Z,8.10
2023-04-03T14:01:19.292Z,6.40
2023-04-03T14:03:57.603Z,7.20
2023-04-03T14:06:30.990Z,10.70
2023-04-03T14:09:03.711Z,7.60
2023-04-03T14:11:37.719Z,6.10
2023-04-03T14:14:16.983Z,9.50
2023-04-03T14:16:56.611Z,6.10
2023-04-03T14:19:33.032Z,4.70
2023-04-03T14:22:18.640Z,9.80
2023-04-03T14:24:51.815Z,4.70
2023-04-03T14:27:27.888Z,7.60
2023-04-03T14:30:01.488Z,6.20
2023-04-03T14:32:33.769Z,7.70
2023-04-03T14:35:07.841Z,9.50
2023-04-03T14:37:40.267Z,6.80
2023-04-03T14:40:18.423Z,6.30
2023-04-03T14:42:51.778Z,7.70
2023-04-03T14:45:25.245Z,9.60
2023-04-03T14:47:59.622Z,6.40
2023-04-03T14:50:31.904Z,4.20
2023-04-03T14:53:04.180Z,8.20
2023-04-03T14:55:36.479Z,4.50
2023-04-03T14:58:10.700Z,4.90
2023-04-03T15:00:42.970Z,5.10
2023-04-03T15:03:19.942Z,7.20
2023-04-03T15:05:53.212Z,10.10
2023-04-03T15:08:28.262Z,14.50
2023-04-03T15:11:02.140Z,7.20
2023-04-03T15:13:34.541Z,28.60
2023-04-03T15:16:08.326Z,22.80
2023-04-03T15:18:41.472Z,47.30
2023-04-03T15:21:13.983Z,99.40
2023-04-03T15:23:46.306Z,47.50
2023-04-03T15:26:18.598Z,122.60
2023-04-03T15:28:50.861Z,57.60
2023-04-03T15:31:23.161Z,102.80
2023-04-03T15:33:55.693Z,64.40
2023-04-03T15:36:34.003Z,94.30
2023-04-03T15:39:07.734Z,139.60
2023-04-03T15:41:40.077Z,140.10
2023-04-03T15:44:13.268Z,47.20
2023-04-03T15:46:45.956Z,27.30
2023-04-03T15:49:18.430Z,18.00
2023-04-03T15:51:50.755Z,15.60
2023-04-03T15:54:25.092Z,63.00
2023-04-03T15:56:57.374Z,81.10
2023-04-03T15:59:30.155Z,34.50
2023-04-03T16:02:06.110Z,29.90
2023-04-03T16:04:38.381Z,19.10
2023-04-03T16:07:10.729Z,65.70
2023-04-03T16:09:43.025Z,29.00
2023-04-03T16:12:15.680Z,40.10
2023-04-03T16:14:47.923Z,26.00
2023-04-03T16:17:20.249Z,22.60
2023-04-03T16:19:52.469Z,31.60
2023-04-03T16:22:26.165Z,23.60
2023-04-03T16:24:58.554Z,10.90
2023-04-03T16:27:32.059Z,4.90
2023-04-03T16:30:04.524Z,9.10
2023-04-03T16:32:38.041Z,12.60
2023-04-03T16:35:12.061Z,6.10
2023-04-03T16:37:44.427Z,13.60
2023-04-03T16:40:16.856Z,11.70
2023-04-03T16:42:49.077Z,13.40
2023-04-03T16:45:21.550Z,6.00
2023-04-03T16:47:53.871Z,44.80
2023-04-03T16:50:26.310Z,33.90
2023-04-03T16:52:58.561Z,20.90
2023-04-03T16:55:30.733Z,22.50
2023-04-03T16:58:03.094Z,24.60
2023-04-03T17:00:35.532Z,33.70
2023-04-03T17:03:07.938Z,12.60
2023-04-03T17:05:40.394Z,27.50
2023-04-03T17:08:14.963Z,62.20
2023-04-03T17:10:48.326Z,58.90
2023-04-03T17:13:21.470Z,37.50
2023-04-03T17:15:53.727Z,137.20
2023-04-03T17:18:26.639Z,90.30
2023-04-03T17:20:59.114Z,103.10
2023-04-03T17:23:31.949Z,84.20
2023-04-03T17:26:04.934Z,116.60
2023-04-03T17:28:37.121Z,27.60
2023-04-03T17:31:09.676Z,27.70
2023-04-03T17:33:41.954Z,14.50
2023-04-03T17:36:14.567Z,18.10
2023-04-03T17:38:48.502Z,24.20
2023-04-03T17:41:20.929Z,24.20
2023-04-03T17:43:56.503Z,12.50
2023-04-03T17:46:30.987Z,17.70
2023-04-03T17:49:04.792Z,20.30
2023-04-03T17:51:36.997Z,21.40
2023-04-03T17:54:09.493Z,36.70
2023-04-03T17:56:47.814Z,22.10
2023-04-03T17:59:20.787Z,21.10
2023-04-03T18:01:53.471Z,22.90
2023-04-03T18:04:25.816Z,26.40
2023-04-03T18:06:58.580Z,19.40
2023-04-03T18:09:35.125Z,17.30
2023-04-03T18:12:09.845Z,43.60
2023-04-03T18:14:43.009Z,103.00
2023-04-03T18:17:15.574Z,63.90
2023-04-03T18:19:48.464Z,38.50
2023-04-03T18:22:23.928Z,31.30
2023-04-03T18:24:58.040Z,40.70
2023-04-03T18:27:30.934Z,34.60
2023-04-03T18:30:08.680Z,33.10
2023-04-03T18:32:41.337Z,26.00
2023-04-03T18:35:15.044Z,26.50
2023-04-03T18:37:47.306Z,34.30
2023-04-03T18:40:19.911Z,34.30
2023-04-03T18:42:52.307Z,32.50
2023-04-03T18:45:26.919Z,34.80
2023-04-03T18:47:59.777Z,34.10
2023-04-03T18:50:32.915Z,58.20
2023-04-03T18:53:05.254Z,30.00
2023-04-03T18:55:37.499Z,37.10
2023-04-03T18:58:09.778Z,25.40
2023-04-03T19:00:43.484Z,15.80
2023-04-03T19:03:17.072Z,24.90
2023-04-03T19:05:49.789Z,35.00
2023-04-03T19:08:22.395Z,21.20
2023-04-03T19:10:54.725Z,15.00
2023-04-03T19:13:28.240Z,23.90
2023-04-03T19:16:01.554Z,31.60
2023-04-03T19:18:33.870Z,25.40
2023-04-03T19:21:06.821Z,26.30
2023-04-03T19:23:41.458Z,22.00
2023-04-03T19:26:14.682Z,17.40
2023-04-03T19:28:50.706Z,17.70
2023-04-03T19:31:24.454Z,14.40
2023-04-03T19:33:57.354Z,17.90
2023-04-03T19:36:29.640Z,15.50
2023-04-03T19:39:01.879Z,16.80
2023-04-03T19:41:36.903Z,12.10
2023-04-03T19:46:40.824Z,23.40
2023-04-03T19:49:24.207Z,20.80
2023-04-03T19:51:56.715Z,18.10
2023-04-03T19:54:28.957Z,28.20
2023-04-03T19:57:02.040Z,81.10
2023-04-03T19:59:34.297Z,77.30
2023-04-03T20:02:06.798Z,80.10
2023-04-03T20:04:39.514Z,89.60
2023-04-03T20:07:12.793Z,327.30
2023-04-03T20:09:45.166Z,241.40
2023-04-03T20:12:17.548Z,231.70
2023-04-03T20:14:49.816Z,577.00
2023-04-03T20:17:22.087Z,605.30
2023-04-03T20:19:54.301Z,589.50
2023-04-03T20:22:26.610Z,189.60
2023-04-03T20:25:06.079Z,194.20
2023-04-03T20:27:39.723Z,123.80
2023-04-03T20:30:15.055Z,412.10
2023-04-03T20:32:48.603Z,360.00
2023-04-03T20:35:22.298Z,314.00
2023-04-03T20:37:54.708Z,223.90
2023-04-03T20:40:27.559Z,338.20
2023-04-03T20:42:59.904Z,215.00
2023-04-03T20:45:32.714Z,175.80
2023-04-03T20:48:06.010Z,235.90
2023-04-03T20:50:38.660Z,510.30
2023-04-03T20:53:11.085Z,464.10
2023-04-03T20:55:43.353Z,225.00
2023-04-03T20:58:15.562Z,151.80
2023-04-03T21:00:47.816Z,79.00
2023-04-03T21:03:20.421Z,80.70
2023-04-03T21:06:00.489Z,80.70
2023-04-03T21:09:07.963Z,36.60
2023-04-03T21:12:15.425Z,42.10
2023-04-03T21:15:22.305Z,91.10
2023-04-03T21:18:19.880Z,37.50
2023-04-03T21:20:52.131Z,26.40
2023-04-03T21:23:24.850Z,27.70
2023-04-03T21:25:57.574Z,17.50
2023-04-03T21:28:29.826Z,16.40
2023-04-03T21:31:02.158Z,15.80
2023-04-03T21:33:34.485Z,22.50
2023-04-03T21:36:07.910Z,10.80
2023-04-03T21:38:40.800Z,9.60
2023-04-03T21:41:13.050Z,7.70
2023-04-03T21:43:48.348Z,9.10
2023-04-03T21:46:20.770Z,7.60
2023-04-03T21:48:53.038Z,8.80
2023-04-03T21:51:25.400Z,8.80
2023-04-03T21:53:58.183Z,14.60
2023-04-03T21:56:31.602Z,7.70
2023-04-03T21:59:05.128Z,8.20
2023-04-03T22:01:37.590Z,7.90
2023-04-03T22:04:09.918Z,6.50
2023-04-03T22:06:42.257Z,7.40
2023-04-03T22:09:14.769Z,22.70
2023-04-03T22:11:49.134Z,12.40
2023-04-03T22:14:21.379Z,11.90
2023-04-03T22:16:54.119Z,11.30
2023-04-03T22:19:26.444Z,9.40
2023-04-03T22:21:58.640Z,10.30
2023-04-03T22:24:31.206Z,10.30
2023-04-03T22:27:03.418Z,12.50
2023-04-03T22:29:35.607Z,15.30
2023-04-03T22:32:08.339Z,17.90
2023-04-03T22:34:41.276Z,18.70
2023-04-03T22:37:13.631Z,15.10
2023-04-03T22:39:45.913Z,12.00
2023-04-03T22:42:18.234Z,12.90
2023-04-03T22:44:50.490Z,12.90
2023-04-03T22:47:23.011Z,17.10
2023-04-03T22:49:55.180Z,21.20
2023-04-03T22:52:27.398Z,41.60
2023-04-03T22:55:06.252Z,40.20
2023-04-03T22:57:48.842Z,41.10
2023-04-03T23:00:21.921Z,25.30
2023-04-03T23:02:54.224Z,34.30
2023-04-03T23:05:26.785Z,35.60
2023-04-03T23:07:59.096Z,28.30
2023-04-03T23:10:31.516Z,20.30
2023-04-03T23:13:03.786Z,21.50
2023-04-03T23:15:36.053Z,17.60
2023-04-03T23:18:08.575Z,25.10
2023-04-03T23:20:41.103Z,23.80
2023-04-03T23:23:13.622Z,17.10
2023-04-03T23:25:45.645Z,18.90
2023-04-03T23:28:18.160Z,11.60
2023-04-03T23:30:51.184Z,21.40
2023-04-03T23:33:23.360Z,20.00
2023-04-03T23:35:55.726Z,10.30
2023-04-03T23:38:28.441Z,19.50
2023-04-03T23:41:00.776Z,16.80
2023-04-03T23:43:33.195Z,14.30
2023-04-03T23:46:05.469Z,11.80
2023-04-03T23:48:38.062Z,13.60
2023-04-03T23:51:10.289Z,16.60
2023-04-03T23:53:42.528Z,16.70
2023-04-03T23:56:14.728Z,11.30
2023-04-03T23:58:46.885Z,10.70
